Austin, TX (78726)

7:24 AM CDT on September 23, 2014 (GMT -0500)
Canyon Creek Epic | Change Station
CLOSE
Current Station
Personal Weather Station
Location: Austin, TX
Elevation: 945 ft
Nearby Weather Stations

Elev 945 ft 30.43 °N, 97.84 °W | Updated 11 seconds ago

Clear
Clear
63.8 °F
Feels Like 63.8 °F
N
0.0
Wind Variable Wind from East
Gusts 1.0 mph

Today
High -- | Low -- °F
--% Chance of Precip.
Yesterday
High -- | Low -- °F
Precip. -- in
7:20 AM 7:26 PM
Waning Crescent, 1% visible
Pressure 30.10 in
Visibility 10.0 miles
Clouds Clear
Dew Point 59 °F
Humidity 85%
Rainfall 0.00 in
Snow Depth Not available.
UV 0.0 out of 12
Pollen 10.00 out of 12
Ozone Good
PM2.5 Good
Flu Activity Not available.
METAR KATT 231151Z AUTO 00000KT 10SM CLR 19/14 A3013 RMK AO2 SLP192 T01940144 10244 20194 50003

More Conditions Fewer Conditions

Pressure 30.10 in
Visibility 10.0 miles
Clouds Clear
Dew Point 59 °F
Humidity 85%
Rainfall 0.00 in
Snow Depth Not available.
UV 0.0 out of 12
Pollen 10.00 out of 12
Ozone Good
PM2.5 Good
Flu Activity Not available.
METAR KATT 231151Z AUTO 00000KT 10SM CLR 19/14 A3013 RMK AO2 SLP192 T01940144 10244 20194 50003

More Conditions Fewer Conditions

10-Day Weather Forecast

Almanac

Astronomy

Sep. 23, 2014 Rise Set
Actual Time 7:20 AM CDT 7:26 PM CDT
Civil Twilight 6:56 AM CDT 7:50 PM CDT
Nautical Twilight 6:28 AM CDT 8:18 PM CDT
Astronomical Twilight 6:00 AM CDT 8:46 PM CDT
Moon 6:46 AM CDT 7:07 PM CDT
Length of Visible Light 12h 54m
Length of Day
12h 06m
Tomorrow will be 1m 50s shorter.
Waning Crescent, 1% of the Moon is Illuminated
Today
Waning Crescent
Sep 24
New
Oct 1
First Quarter
Oct 8
Full
Oct 15
Last Quarter

Today's Extremes

State Highs State Lows

Community

WunderPhotos

Upload Photos

1,755,659 photos uploaded!

WunderBlogs® & News

Nearby

Air Quality

  Air Quality AQ Index Pollutant
Yesterday Moderate
PM2.5
Yesterday Good
OZONE
Current Good
OZONE
Current Good
PM2.5
Tuesday Moderate
OZONE
Tuesday Good
PM10
Wednesday Moderate
OZONE
Wednesday Good
PM10
Thursday Moderate
OZONE
Thursday Good
PM10

Snow Depth

Station Depth Elevation
No new snow has been reported.

Earthquake Activity

City Distance Mag. Time & Date
No recent earthquake activity has been reported nearby.
Minimum magnitude displayed is 2.5.

Coastal Water Temperatures

Place Temperature
No Stations Reporting

Nearby Weather Stations